createdAt,value
2023-05-12T00:01:43.023Z,4.77
2023-05-12T00:04:12.557Z,4.73
2023-05-12T00:06:40.512Z,5.67
2023-05-12T00:09:08.441Z,5.60
2023-05-12T00:11:37.453Z,4.77
2023-05-12T00:14:05.407Z,6.00
2023-05-12T00:16:33.335Z,4.80
2023-05-12T00:19:01.368Z,3.47
2023-05-12T00:21:30.957Z,5.83
2023-05-12T00:23:58.802Z,5.37
2023-05-12T00:26:26.788Z,5.40
2023-05-12T00:28:54.646Z,2.43
2023-05-12T00:31:22.680Z,2.10
2023-05-12T00:33:50.802Z,5.93
2023-05-12T00:36:18.673Z,2.60
2023-05-12T00:38:47.944Z,2.50
2023-05-12T00:41:16.065Z,3.47
2023-05-12T00:43:43.935Z,2.50
2023-05-12T00:46:12.421Z,2.87
2023-05-12T00:48:40.498Z,3.30
2023-05-12T00:51:08.499Z,2.70
2023-05-12T00:53:48.503Z,3.47
2023-05-12T00:56:20.193Z,4.23
2023-05-12T00:58:48.458Z,3.73
2023-05-12T01:01:17.733Z,3.53
2023-05-12T01:03:47.593Z,3.87
2023-05-12T01:06:21.951Z,5.07
2023-05-12T01:08:50.629Z,6.67
2023-05-12T01:11:21.779Z,7.90
2023-05-12T01:13:49.686Z,6.80
2023-05-12T01:16:20.772Z,6.77
2023-05-12T01:18:53.296Z,6.20
2023-05-12T01:21:22.213Z,6.90
2023-05-12T01:24:02.306Z,7.90
2023-05-12T01:26:33.396Z,8.93
2023-05-12T01:29:03.582Z,9.33
2023-05-12T01:31:33.200Z,8.77
2023-05-12T01:34:01.499Z,9.03
2023-05-12T01:36:31.518Z,9.03
2023-05-12T01:38:59.831Z,10.57
2023-05-12T01:41:27.801Z,9.00
2023-05-12T01:43:57.151Z,5.47
2023-05-12T01:46:33.508Z,6.13
2023-05-12T01:49:02.183Z,7.73
2023-05-12T01:51:30.390Z,5.27
2023-05-12T01:53:59.924Z,4.53
2023-05-12T01:56:31.688Z,4.50
2023-05-12T01:59:00.982Z,6.53
2023-05-12T02:01:29.438Z,5.80
2023-05-12T02:03:59.081Z,5.10
2023-05-12T02:06:28.705Z,8.27
2023-05-12T02:08:57.775Z,10.20
2023-05-12T02:11:25.982Z,9.40
2023-05-12T02:13:53.898Z,9.37
2023-05-12T02:16:23.289Z,9.70
2023-05-12T02:18:51.504Z,10.00
2023-05-12T02:21:19.530Z,11.40
2023-05-12T02:23:48.689Z,9.63
2023-05-12T02:26:16.556Z,11.53
2023-05-12T02:28:44.559Z,12.30
2023-05-12T02:31:13.032Z,11.30
2023-05-12T02:33:42.422Z,10.87
2023-05-12T02:36:10.505Z,11.33
2023-05-12T02:38:39.871Z,10.67
2023-05-12T02:41:08.432Z,11.67
2023-05-12T02:43:36.321Z,12.27
2023-05-12T02:46:04.964Z,11.87
2023-05-12T02:48:33.436Z,11.40
2023-05-12T02:51:02.795Z,10.93
2023-05-12T02:53:30.739Z,10.60
2023-05-12T02:55:58.713Z,11.10
2023-05-12T02:58:26.824Z,10.80
2023-05-12T03:01:06.644Z,11.07
2023-05-12T03:03:38.835Z,11.23
2023-05-12T03:06:09.480Z,11.70
2023-05-12T03:08:37.623Z,10.83
2023-05-12T03:11:05.683Z,10.03
2023-05-12T03:13:33.705Z,11.20
2023-05-12T03:16:02.033Z,11.33
2023-05-12T03:18:31.442Z,10.53
2023-05-12T03:20:59.585Z,11.17
2023-05-12T03:23:28.835Z,11.33
2023-05-12T03:25:56.867Z,11.50
2023-05-12T03:28:24.814Z,12.40
2023-05-12T03:30:53.247Z,11.00
2023-05-12T03:33:21.118Z,10.10
2023-05-12T03:35:50.299Z,11.63
2023-05-12T03:38:19.536Z,11.10
2023-05-12T03:40:52.680Z,10.57
2023-05-12T03:43:21.352Z,11.40
2023-05-12T03:45:50.203Z,11.67
2023-05-12T03:48:18.159Z,11.43
2023-05-12T03:50:46.055Z,11.33
2023-05-12T03:53:13.907Z,11.63
2023-05-12T03:55:42.093Z,11.37
2023-05-12T03:58:12.479Z,11.27
2023-05-12T04:00:40.451Z,11.77
2023-05-12T04:03:08.444Z,11.10
2023-05-12T04:05:39.351Z,11.57
2023-05-12T04:08:07.290Z,12.27
2023-05-12T04:10:39.951Z,10.27
2023-05-12T04:13:08.645Z,10.20
2023-05-12T04:15:38.031Z,10.63
2023-05-12T04:18:06.669Z,12.00
2023-05-12T04:20:34.528Z,10.70
2023-05-12T04:23:02.589Z,10.83
2023-05-12T04:25:30.589Z,10.33
2023-05-12T04:27:58.490Z,9.83
2023-05-12T04:30:26.533Z,9.67
2023-05-12T04:32:56.052Z,10.90
2023-05-12T04:35:23.961Z,10.33
2023-05-12T04:37:51.856Z,10.57
2023-05-12T04:40:20.206Z,12.77
2023-05-12T04:42:48.451Z,10.13
2023-05-12T04:45:17.306Z,12.17
2023-05-12T04:47:45.530Z,10.77
2023-05-12T04:50:15.604Z,10.57
2023-05-12T04:52:44.002Z,11.13
2023-05-12T04:55:11.948Z,10.30
2023-05-12T04:57:41.316Z,11.60
2023-05-12T05:00:12.001Z,11.43
2023-05-12T05:02:41.377Z,11.13
2023-05-12T05:05:10.875Z,12.17
2023-05-12T05:07:40.082Z,11.10
2023-05-12T05:10:09.121Z,11.57
2023-05-12T05:12:37.666Z,10.47
2023-05-12T05:15:09.724Z,11.33
2023-05-12T05:17:37.928Z,11.43
2023-05-12T05:20:11.773Z,11.50
2023-05-12T05:22:41.480Z,12.20
2023-05-12T05:25:10.448Z,13.67
2023-05-12T05:27:38.908Z,10.67
2023-05-12T05:30:08.986Z,10.73
2023-05-12T05:32:40.123Z,10.87
2023-05-12T05:35:08.872Z,9.40
2023-05-12T05:37:41.886Z,9.57
2023-05-12T05:40:10.805Z,11.23
2023-05-12T05:42:38.912Z,10.63
2023-05-12T05:45:07.850Z,9.93
2023-05-12T05:47:37.424Z,9.97
2023-05-12T05:50:06.682Z,10.37
2023-05-12T05:52:37.789Z,9.60
2023-05-12T05:55:07.908Z,10.33
2023-05-12T05:57:35.977Z,9.50
2023-05-12T06:00:04.994Z,10.27
2023-05-12T06:02:41.544Z,8.77
2023-05-12T06:05:17.323Z,9.53
2023-05-12T06:07:45.503Z,12.97
2023-05-12T06:10:14.812Z,9.00
2023-05-12T06:12:43.170Z,9.10
2023-05-12T06:15:11.963Z,9.47
2023-05-12T06:17:40.152Z,9.17
2023-05-12T06:20:09.943Z,9.53
2023-05-12T06:22:38.681Z,9.70
2023-05-12T06:25:07.632Z,11.60
2023-05-12T06:27:36.934Z,9.20
2023-05-12T06:30:05.392Z,9.37
2023-05-12T06:32:33.303Z,10.33
2023-05-12T06:35:01.365Z,9.67
2023-05-12T06:37:29.342Z,9.27
2023-05-12T06:39:57.232Z,9.50
2023-05-12T06:42:26.468Z,9.33
2023-05-12T06:44:58.465Z,10.93
2023-05-12T06:47:26.441Z,9.47
2023-05-12T06:49:54.463Z,9.33
2023-05-12T06:52:23.853Z,10.47
2023-05-12T06:54:51.754Z,10.87
2023-05-12T06:57:20.156Z,12.97
2023-05-12T06:59:48.123Z,9.20
2023-05-12T07:02:17.637Z,9.20
2023-05-12T07:04:45.657Z,8.83
2023-05-12T07:07:13.547Z,8.37
2023-05-12T07:09:42.357Z,8.53
2023-05-12T07:12:10.478Z,8.07
2023-05-12T07:14:39.670Z,8.10
2023-05-12T07:17:07.574Z,7.87
2023-05-12T07:19:37.085Z,8.10
2023-05-12T07:22:05.377Z,9.30
2023-05-12T07:24:33.433Z,9.20
2023-05-12T07:27:01.301Z,9.07
2023-05-12T07:29:29.231Z,7.57
2023-05-12T07:31:57.353Z,7.83
2023-05-12T07:34:25.662Z,8.37
2023-05-12T07:36:54.929Z,7.83
2023-05-12T07:39:24.153Z,8.13
2023-05-12T07:41:53.434Z,8.40
2023-05-12T07:44:21.465Z,8.17
2023-05-12T07:46:49.438Z,6.33
2023-05-12T07:49:17.293Z,6.37
2023-05-12T07:51:45.142Z,6.57
2023-05-12T07:54:14.340Z,5.50
2023-05-12T07:56:42.275Z,6.40
2023-05-12T07:59:10.807Z,5.30
2023-05-12T08:01:38.830Z,10.00
2023-05-12T08:04:07.591Z,4.07
2023-05-12T08:06:35.569Z,4.73
2023-05-12T08:09:03.546Z,5.10
2023-05-12T08:11:32.993Z,5.43
2023-05-12T08:14:00.945Z,2.80
2023-05-12T08:16:29.255Z,3.27
2023-05-12T08:18:57.334Z,3.60
2023-05-12T08:21:25.290Z,4.87
2023-05-12T08:23:53.151Z,3.60
2023-05-12T08:26:21.307Z,4.00
2023-05-12T08:28:50.712Z,4.10
2023-05-12T08:31:18.676Z,4.20
2023-05-12T08:33:49.832Z,3.83
2023-05-12T08:36:19.951Z,3.70
2023-05-12T08:38:47.952Z,3.80
2023-05-12T08:41:19.881Z,3.37
2023-05-12T08:43:52.917Z,3.93
2023-05-12T08:46:22.062Z,2.70
2023-05-12T08:48:55.874Z,3.80
2023-05-12T08:51:26.092Z,4.40
2023-05-12T08:53:56.044Z,3.80
2023-05-12T08:58:57.994Z,3.50
2023-05-12T09:01:26.941Z,3.10
2023-05-12T09:03:55.323Z,3.50
2023-05-12T09:06:23.415Z,3.00
2023-05-12T09:08:52.196Z,3.23
2023-05-12T09:11:22.520Z,3.30
2023-05-12T09:13:57.472Z,3.80
2023-05-12T09:16:32.508Z,3.70
2023-05-12T09:19:02.714Z,3.03
2023-05-12T09:21:31.576Z,3.57
2023-05-12T09:24:03.245Z,4.47
2023-05-12T09:26:31.324Z,3.60
2023-05-12T09:29:08.503Z,3.80
2023-05-12T09:31:38.567Z,3.73
2023-05-12T09:34:09.454Z,3.07
2023-05-12T09:36:37.849Z,3.83
2023-05-12T09:39:07.916Z,4.33
2023-05-12T09:41:37.470Z,3.80
2023-05-12T09:44:06.501Z,4.53
2023-05-12T09:46:34.688Z,3.67
2023-05-12T09:49:04.251Z,3.67
2023-05-12T09:51:32.200Z,3.67
2023-05-12T09:54:00.733Z,3.33
2023-05-12T09:56:29.931Z,3.50
2023-05-12T09:58:58.729Z,3.23
2023-05-12T10:01:28.493Z,3.30
2023-05-12T10:03:58.532Z,3.37
2023-05-12T10:06:29.140Z,3.10
2023-05-12T10:09:06.129Z,3.07
2023-05-12T10:11:34.365Z,3.23
2023-05-12T10:14:02.398Z,3.03
2023-05-12T10:16:30.768Z,3.63
2023-05-12T10:18:59.502Z,2.50
2023-05-12T10:21:29.175Z,2.50
2023-05-12T10:23:58.780Z,3.60
2023-05-12T10:26:27.417Z,2.57
2023-05-12T10:28:55.605Z,2.90
2023-05-12T10:31:24.622Z,2.90
2023-05-12T10:34:03.028Z,2.77
2023-05-12T10:36:32.547Z,4.37
2023-05-12T10:39:06.210Z,2.90
2023-05-12T10:41:36.199Z,2.97
2023-05-12T10:44:04.142Z,3.00
2023-05-12T10:46:32.344Z,4.03
2023-05-12T10:49:03.394Z,3.87
2023-05-12T10:51:35.112Z,3.70
2023-05-12T10:54:04.316Z,4.07
2023-05-12T10:56:43.865Z,4.27
2023-05-12T10:59:14.700Z,4.80
2023-05-12T11:01:44.572Z,4.83
2023-05-12T11:04:14.921Z,3.47
2023-05-12T11:06:47.011Z,4.73
2023-05-12T11:09:17.481Z,3.77
2023-05-12T11:11:45.959Z,2.93
2023-05-12T11:14:14.305Z,3.40
2023-05-12T11:16:46.186Z,6.10
2023-05-12T11:19:14.352Z,4.50
2023-05-12T11:21:42.469Z,5.20
2023-05-12T11:24:14.949Z,3.13
2023-05-12T11:26:42.969Z,2.93
2023-05-12T11:29:11.137Z,3.17
2023-05-12T11:31:39.593Z,3.67
2023-05-12T11:34:13.062Z,2.40
2023-05-12T11:36:43.218Z,5.00
2023-05-12T11:39:20.743Z,4.53
2023-05-12T11:41:51.365Z,8.03
2023-05-12T11:44:22.118Z,5.13
2023-05-12T11:46:57.424Z,4.07
2023-05-12T11:49:25.890Z,5.40
2023-05-12T11:51:54.813Z,4.03
2023-05-12T11:54:25.029Z,3.53
2023-05-12T11:56:54.728Z,4.40
2023-05-12T11:59:30.668Z,3.50
2023-05-12T12:01:59.292Z,3.37
2023-05-12T12:04:37.415Z,4.10
2023-05-12T12:07:09.548Z,3.50
2023-05-12T12:09:41.523Z,2.60
2023-05-12T12:12:11.018Z,3.33
2023-05-12T12:14:41.388Z,2.93
2023-05-12T12:17:09.351Z,3.40
2023-05-12T12:19:37.234Z,3.30
2023-05-12T12:22:05.473Z,3.20
2023-05-12T12:24:33.323Z,3.43
2023-05-12T12:27:02.820Z,3.83
2023-05-12T12:29:30.731Z,3.40
2023-05-12T12:31:58.611Z,3.40
2023-05-12T12:34:26.579Z,2.80
2023-05-12T12:36:56.038Z,3.20
2023-05-12T12:39:24.024Z,2.80
2023-05-12T12:41:52.113Z,4.07
2023-05-12T12:44:21.898Z,5.07
2023-05-12T12:46:50.305Z,6.07
2023-05-12T12:49:18.373Z,3.13
2023-05-12T12:51:47.205Z,2.93
2023-05-12T12:54:15.869Z,5.30
2023-05-12T12:56:44.930Z,3.00
2023-05-12T12:59:12.986Z,2.50
2023-05-12T13:01:42.927Z,3.00
2023-05-12T13:04:11.219Z,3.27
2023-05-12T13:06:39.172Z,3.10
2023-05-12T13:09:07.257Z,4.53
2023-05-12T13:11:35.564Z,7.30
2023-05-12T13:14:04.474Z,5.37
2023-05-12T13:16:32.598Z,5.80
2023-05-12T13:19:02.010Z,5.13
2023-05-12T13:21:30.001Z,6.10
2023-05-12T13:23:57.900Z,5.43
2023-05-12T13:26:25.912Z,6.40
2023-05-12T13:28:54.068Z,19.30
2023-05-12T13:31:22.063Z,13.33
2023-05-12T13:33:50.462Z,8.80
2023-05-12T13:36:19.748Z,8.87
2023-05-12T13:38:47.630Z,7.30
2023-05-12T13:41:15.765Z,8.50
2023-05-12T13:43:43.842Z,6.80
2023-05-12T13:46:11.808Z,6.93
2023-05-12T13:48:39.645Z,6.27
2023-05-12T13:51:07.518Z,6.40
2023-05-12T13:53:38.455Z,7.30
2023-05-12T13:56:16.471Z,6.60
2023-05-12T13:58:44.481Z,7.00
2023-05-12T14:01:12.565Z,7.57
2023-05-12T14:03:42.019Z,6.77
2023-05-12T14:06:10.795Z,8.97
2023-05-12T14:08:41.359Z,7.63
2023-05-12T14:11:10.028Z,7.03
2023-05-12T14:13:37.969Z,6.23
2023-05-12T14:16:06.730Z,8.20
2023-05-12T14:18:34.746Z,6.73
2023-05-12T14:21:02.692Z,5.87
2023-05-12T14:23:30.582Z,6.13
2023-05-12T14:25:59.790Z,5.90
2023-05-12T14:28:28.940Z,6.77
2023-05-12T14:30:56.945Z,5.73
2023-05-12T14:33:24.896Z,6.57
2023-05-12T14:36:03.287Z,5.17
2023-05-12T14:38:34.219Z,9.00
2023-05-12T14:41:03.923Z,5.53
2023-05-12T14:43:32.389Z,5.90
2023-05-12T14:46:00.534Z,5.20
2023-05-12T14:48:28.614Z,5.97
2023-05-12T14:50:57.605Z,7.20
2023-05-12T14:53:25.754Z,5.47
2023-05-12T14:55:53.750Z,7.43
2023-05-12T14:58:24.074Z,5.10
2023-05-12T15:00:52.597Z,4.97
2023-05-12T15:03:21.814Z,4.80
2023-05-12T15:08:21.538Z,4.77
2023-05-12T15:10:49.635Z,4.33
2023-05-12T15:13:19.967Z,4.60
2023-05-12T15:15:50.973Z,4.40
2023-05-12T15:18:19.846Z,6.83
2023-05-12T15:20:47.693Z,4.97
2023-05-12T15:23:15.595Z,6.00
2023-05-12T15:25:43.519Z,4.13
2023-05-12T15:28:11.431Z,6.80
2023-05-12T15:30:39.336Z,3.70
2023-05-12T15:33:08.617Z,4.07
2023-05-12T15:35:36.669Z,4.17
2023-05-12T15:38:04.607Z,4.37
2023-05-12T15:40:32.496Z,3.63
2023-05-12T15:43:00.347Z,4.57
2023-05-12T15:45:28.244Z,3.93
2023-05-12T15:47:56.681Z,4.03
2023-05-12T15:50:26.018Z,3.63
2023-05-12T15:52:53.872Z,5.63
2023-05-12T15:55:22.304Z,3.77
2023-05-12T15:57:50.953Z,3.33
2023-05-12T16:00:20.384Z,3.27
2023-05-12T16:02:50.381Z,3.67
2023-05-12T16:05:21.845Z,3.53
2023-05-12T16:07:51.251Z,3.43
2023-05-12T16:10:19.248Z,3.33
2023-05-12T16:12:48.023Z,3.20
2023-05-12T16:15:16.170Z,3.53
2023-05-12T16:17:44.186Z,6.80
2023-05-12T16:20:13.181Z,4.37
2023-05-12T16:22:41.023Z,3.30
2023-05-12T16:25:11.225Z,3.70
2023-05-12T16:27:39.088Z,4.83
2023-05-12T16:30:08.430Z,3.70
2023-05-12T16:32:36.388Z,3.53
2023-05-12T16:35:04.289Z,3.60
2023-05-12T16:37:35.279Z,3.70
2023-05-12T16:40:03.845Z,6.07
2023-05-12T16:42:33.045Z,4.27
2023-05-12T16:45:01.166Z,3.33
2023-05-12T16:47:29.503Z,3.70
2023-05-12T16:49:59.164Z,4.83
2023-05-12T16:52:27.472Z,3.17
2023-05-12T16:54:57.029Z,3.60
2023-05-12T16:57:25.230Z,5.43
2023-05-12T16:59:54.769Z,3.23
2023-05-12T17:02:22.898Z,4.30
2023-05-12T17:04:51.106Z,3.13
2023-05-12T17:07:18.973Z,4.17
2023-05-12T17:09:46.897Z,3.23
2023-05-12T17:12:15.168Z,4.07
2023-05-12T17:14:45.912Z,3.73
2023-05-12T17:17:17.232Z,3.23
2023-05-12T17:19:45.274Z,3.90
2023-05-12T17:22:13.683Z,3.63
2023-05-12T17:24:41.677Z,3.87
2023-05-12T17:27:09.798Z,3.73
2023-05-12T17:29:37.930Z,3.13
2023-05-12T17:32:06.472Z,3.30
2023-05-12T17:34:35.869Z,3.30
2023-05-12T17:37:05.920Z,3.67
2023-05-12T17:39:34.324Z,5.00
2023-05-12T17:42:03.140Z,3.53
2023-05-12T17:44:31.537Z,3.77
2023-05-12T17:46:59.409Z,4.83
2023-05-12T17:49:27.247Z,3.40
2023-05-12T17:51:56.485Z,3.73
2023-05-12T17:54:24.416Z,4.77
2023-05-12T17:56:52.338Z,3.93
2023-05-12T17:59:20.329Z,3.83
2023-05-12T18:01:50.602Z,3.67
2023-05-12T18:04:19.290Z,3.73
2023-05-12T18:06:49.995Z,5.67
2023-05-12T18:09:19.839Z,4.40
2023-05-12T18:11:48.795Z,3.97
2023-05-12T18:14:17.106Z,3.57
2023-05-12T18:16:45.041Z,4.43
2023-05-12T18:19:13.090Z,3.83
2023-05-12T18:21:41.015Z,3.53
2023-05-12T18:24:09.166Z,3.00
2023-05-12T18:26:38.340Z,3.00
2023-05-12T18:29:06.371Z,2.87
2023-05-12T18:31:36.127Z,3.10
2023-05-12T18:34:04.096Z,3.13
2023-05-12T18:36:32.171Z,2.70
2023-05-12T18:39:00.286Z,3.43
2023-05-12T18:41:28.450Z,3.47
2023-05-12T18:43:57.871Z,3.47
2023-05-12T18:46:26.233Z,2.50
2023-05-12T18:48:54.201Z,2.40
2023-05-12T18:51:22.562Z,3.33
2023-05-12T18:53:50.754Z,4.67
2023-05-12T18:56:19.161Z,2.70
2023-05-12T18:58:47.352Z,2.57
2023-05-12T19:01:17.251Z,2.43
2023-05-12T19:03:45.280Z,2.70
2023-05-12T19:06:13.939Z,3.00
2023-05-12T19:08:41.834Z,2.60
2023-05-12T19:11:09.863Z,2.80
2023-05-12T19:13:42.562Z,3.20
2023-05-12T19:16:10.589Z,2.60
2023-05-12T19:18:40.049Z,2.30
2023-05-12T19:21:08.102Z,2.60
2023-05-12T19:23:36.340Z,2.40
2023-05-12T19:26:06.324Z,2.37
2023-05-12T19:28:34.330Z,2.03
2023-05-12T19:31:02.323Z,2.70
2023-05-12T19:33:31.880Z,2.10
2023-05-12T19:36:01.289Z,2.20
2023-05-12T19:38:29.191Z,3.50
2023-05-12T19:40:57.275Z,3.00
2023-05-12T19:43:25.175Z,3.00
2023-05-12T19:45:53.096Z,3.70
2023-05-12T19:48:21.339Z,1.80
2023-05-12T19:50:49.316Z,2.10
2023-05-12T19:53:18.534Z,3.67
2023-05-12T19:55:46.469Z,2.07
2023-05-12T19:58:14.626Z,2.07
2023-05-12T20:00:42.501Z,2.27
2023-05-12T20:03:10.494Z,2.53
2023-05-12T20:05:38.442Z,2.40
2023-05-12T20:08:07.337Z,1.83
2023-05-12T20:10:36.635Z,3.00
2023-05-12T20:13:04.800Z,1.70
2023-05-12T20:15:34.012Z,2.50
2023-05-12T20:18:02.032Z,1.87
2023-05-12T20:20:29.980Z,1.90
2023-05-12T20:22:57.884Z,2.97
2023-05-12T20:25:26.980Z,3.10
2023-05-12T20:27:56.256Z,2.57
2023-05-12T20:30:24.307Z,1.90
2023-05-12T20:32:52.189Z,2.53
2023-05-12T20:35:20.574Z,1.93
2023-05-12T20:37:48.965Z,2.40
2023-05-12T20:40:16.980Z,2.57
2023-05-12T20:42:46.531Z,2.80
2023-05-12T20:45:16.275Z,2.00
2023-05-12T20:47:44.153Z,2.23
2023-05-12T20:50:12.625Z,4.40
2023-05-12T20:52:41.871Z,3.33
2023-05-12T20:55:10.155Z,2.77
2023-05-12T20:57:39.950Z,4.53
2023-05-12T21:00:10.556Z,3.70
2023-05-12T21:02:40.684Z,3.00
2023-05-12T21:05:10.093Z,2.87
2023-05-12T21:07:38.018Z,3.43
2023-05-12T21:10:06.701Z,1.67
2023-05-12T21:12:34.695Z,2.80
2023-05-12T21:15:02.813Z,2.40
2023-05-12T21:17:30.702Z,2.33
2023-05-12T21:19:59.987Z,3.80
2023-05-12T21:22:27.928Z,4.67
2023-05-12T21:24:55.860Z,3.50
2023-05-12T21:27:23.698Z,3.50
2023-05-12T21:29:51.736Z,2.60
2023-05-12T21:32:19.885Z,3.23
2023-05-12T21:34:47.864Z,3.23
2023-05-12T21:37:17.141Z,3.10
2023-05-12T21:39:45.057Z,4.13
2023-05-12T21:42:12.905Z,4.73
2023-05-12T21:44:40.766Z,2.90
2023-05-12T21:47:08.731Z,3.13
2023-05-12T21:49:36.853Z,2.67
2023-05-12T21:52:05.482Z,3.13
2023-05-12T21:54:34.785Z,2.67
2023-05-12T21:57:03.693Z,2.67
2023-05-12T21:59:31.935Z,4.27
2023-05-12T22:02:00.083Z,2.50
2023-05-12T22:04:27.970Z,2.70
2023-05-12T22:06:55.914Z,2.97
2023-05-12T22:09:23.826Z,3.70
2023-05-12T22:11:53.060Z,3.80
2023-05-12T22:14:21.438Z,3.00
2023-05-12T22:16:49.398Z,2.87
2023-05-12T22:19:17.476Z,2.60
2023-05-12T22:21:45.607Z,5.00
2023-05-12T22:24:13.556Z,3.30
2023-05-12T22:26:41.452Z,2.77
2023-05-12T22:29:10.692Z,2.80
2023-05-12T22:31:38.586Z,2.70
2023-05-12T22:34:06.698Z,3.13
2023-05-12T22:36:34.666Z,5.73
2023-05-12T22:39:02.533Z,4.67
2023-05-12T22:41:30.598Z,4.03
2023-05-12T22:43:58.892Z,6.43
2023-05-12T22:46:28.139Z,5.23
2023-05-12T22:48:56.191Z,3.67
2023-05-12T22:51:24.092Z,3.27
2023-05-12T22:53:51.969Z,5.63
2023-05-12T22:56:20.062Z,4.37
2023-05-12T22:58:47.967Z,4.93
2023-05-12T23:01:15.900Z,3.03
2023-05-12T23:03:45.157Z,3.67
2023-05-12T23:06:13.073Z,5.33
2023-05-12T23:08:40.959Z,3.70
2023-05-12T23:11:09.563Z,3.03
2023-05-12T23:13:37.457Z,3.77
2023-05-12T23:16:06.199Z,3.10
2023-05-12T23:18:34.165Z,2.83
2023-05-12T23:21:03.535Z,3.07
2023-05-12T23:23:32.957Z,3.57
2023-05-12T23:26:00.910Z,3.80
2023-05-12T23:28:28.854Z,3.17
2023-05-12T23:30:56.692Z,5.00
2023-05-12T23:33:24.812Z,3.90
2023-05-12T23:35:52.768Z,6.17
2023-05-12T23:38:22.105Z,4.10
2023-05-12T23:40:49.966Z,3.33
2023-05-12T23:43:17.885Z,3.33
2023-05-12T23:45:46.775Z,2.97
2023-05-12T23:48:14.699Z,3.03
2023-05-12T23:50:42.622Z,2.90
2023-05-12T23:53:10.560Z,4.67
2023-05-12T23:55:39.788Z,3.63
2023-05-12T23:58:10.604Z,2.93
